Time;durP1;ratioP1;P1;durP2;ratioP2;P2;SDS_P1;SDS_P2;PMS_P1;PMS_P2;Temp;Humidity;BMP_temperature;BMP_pressure;BME280_temperature;BME280_humidity;BME280_pressure;Samples;Min_cycle;Max_cycle;Signal;HPM_P1;HPM_P2
2022/05/01 00:01:45;;;;;;;4.90;2.88;;;;;;;7.82;100.00;102171.13;6274096;28;20175;-69
2022/05/01 00:04:48;;;;;;;4.85;2.60;;;;;;;7.78;100.00;102176.44;6274795;28;20404;-69
2022/05/01 00:07:50;;;;;;;4.43;2.55;;;;;;;7.75;100.00;102171.25;6274694;28;20049;-69
2022/05/01 00:10:51;;;;;;;5.18;2.67;;;;;;;7.79;100.00;102176.41;6274325;28;20049;-69
2022/05/01 00:13:53;;;;;;;6.90;3.25;;;;;;;7.70;100.00;102168.72;6274569;28;20057;-69
2022/05/01 00:16:55;;;;;;;5.50;2.70;;;;;;;7.66;100.00;102167.06;6274863;28;20048;-69
2022/05/01 00:19:57;;;;;;;7.00;2.72;;;;;;;7.70;100.00;102165.25;6273649;28;20444;-69
2022/05/01 00:22:59;;;;;;;4.10;2.35;;;;;;;7.73;100.00;102166.06;6273607;28;20063;-69
2022/05/01 00:26:03;;;;;;;7.15;2.78;;;;;;;7.79;100.00;102162.47;6260521;28;20057;-69
2022/05/01 00:29:06;;;;;;;6.57;2.80;;;;;;;7.82;100.00;102162.41;6249509;28;20515;-69
2022/05/01 00:32:08;;;;;;;7.50;2.95;;;;;;;7.81;100.00;102168.50;6248801;28;20049;-69
2022/05/01 00:38:30;;;;;;;8.55;3.10;;;;;;;7.87;100.00;102168.41;6249409;28;20058;-69
2022/05/01 00:41:32;;;;;;;5.20;2.63;;;;;;;7.87;100.00;102163.19;6248388;28;20136;-69
2022/05/01 00:44:34;;;;;;;5.68;2.05;;;;;;;7.72;100.00;102169.59;6249399;28;20056;-69
2022/05/01 00:47:36;;;;;;;5.40;2.97;;;;;;;7.65;100.00;102162.72;6248528;28;20088;-69
2022/05/01 00:50:39;;;;;;;11.18;3.20;;;;;;;7.63;100.00;102161.91;6248470;28;20143;-69
2022/05/01 00:53:40;;;;;;;6.05;3.00;;;;;;;7.68;100.00;102160.06;6248944;28;20057;-69
2022/05/01 00:56:44;;;;;;;6.05;2.95;;;;;;;7.76;100.00;102160.75;6249113;28;20053;-70
2022/05/01 00:59:46;;;;;;;5.85;3.10;;;;;;;7.72;100.00;102160.84;6248666;28;20053;-69
2022/05/01 01:02:48;;;;;;;5.68;3.17;;;;;;;7.73;100.00;102162.59;6248548;28;20049;-69
2022/05/01 01:05:50;;;;;;;8.30;2.60;;;;;;;7.63;100.00;102157.53;6248829;28;20064;-68
2022/05/01 01:08:53;;;;;;;4.68;3.00;;;;;;;7.57;100.00;102162.84;6248816;28;20052;-69
2022/05/01 01:15:11;;;;;;;4.07;2.67;;;;;;;7.64;100.00;102161.00;6248140;28;20084;-69
2022/05/01 01:18:12;;;;;;;5.25;2.83;;;;;;;7.67;100.00;102162.69;6248467;28;20104;-69
2022/05/01 01:21:15;;;;;;;5.72;2.92;;;;;;;7.68;100.00;102167.06;6247524;28;20053;-69
2022/05/01 01:24:16;;;;;;;5.55;2.60;;;;;;;7.61;100.00;102158.44;6248385;28;20060;-69
2022/05/01 01:27:18;;;;;;;7.80;2.60;;;;;;;7.70;100.00;102165.25;6248034;28;20053;-69
2022/05/01 01:33:39;;;;;;;4.32;2.50;;;;;;;7.61;100.00;102172.38;6247918;28;20049;-69
2022/05/01 01:36:45;;;;;;;5.18;2.58;;;;;;;7.54;100.00;102168.16;6248036;28;20046;-69
2022/05/01 01:39:47;;;;;;;6.18;2.65;;;;;;;7.47;100.00;102174.38;6247544;28;20057;-69
2022/05/01 01:42:51;;;;;;;5.00;2.63;;;;;;;7.45;100.00;102180.50;6247584;28;20425;-69
2022/05/01 01:45:52;;;;;;;4.25;2.33;;;;;;;7.53;100.00;102176.88;6247699;28;20054;-69
2022/05/01 01:48:54;;;;;;;5.30;2.65;;;;;;;7.51;100.00;102175.19;6247870;28;20052;-69
2022/05/01 01:51:57;;;;;;;3.83;2.53;;;;;;;7.49;100.00;102179.56;6246757;28;20056;-69
2022/05/01 01:54:58;;;;;;;5.00;2.67;;;;;;;7.53;100.00;102174.25;6247530;28;20053;-69
2022/05/01 01:58:00;;;;;;;6.13;3.05;;;;;;;7.51;100.00;102173.44;6247317;28;20057;-69
2022/05/01 02:01:01;;;;;;;5.53;3.20;;;;;;;7.49;100.00;102172.59;6246417;28;20053;-69
2022/05/01 02:04:03;;;;;;;7.03;2.83;;;;;;;7.49;100.00;102163.88;6247484;28;20052;-69
2022/05/01 02:07:05;;;;;;;9.07;3.60;;;;;;;7.44;100.00;102163.09;6247110;28;20401;-69
2022/05/01 02:10:08;;;;;;;4.55;2.67;;;;;;;7.43;100.00;102166.59;6247144;28;20500;-69
2022/05/01 02:13:10;;;;;;;3.97;2.25;;;;;;;7.44;100.00;102177.03;6246589;28;20054;-69
2022/05/01 02:16:11;;;;;;;7.45;2.60;;;;;;;7.39;100.00;102168.41;6247193;28;20132;-68
2022/05/01 02:19:13;;;;;;;4.55;2.72;;;;;;;7.26;100.00;102169.50;6252545;28;20044;-69
2022/05/01 02:22:16;;;;;;;7.78;4.10;;;;;;;7.27;100.00;102166.88;6270690;28;20123;-69
2022/05/01 02:25:17;;;;;;;4.90;2.92;;;;;;;7.40;100.00;102159.66;6269514;28;20523;-69
2022/05/01 02:28:19;;;;;;;7.40;3.03;;;;;;;7.43;100.00;102159.63;6255191;28;20045;-69
2022/05/01 02:31:22;;;;;;;6.82;3.03;;;;;;;7.38;100.00;102174.53;6246138;28;20057;-69
2022/05/01 02:34:24;;;;;;;9.55;2.88;;;;;;;7.40;100.00;102167.50;6246995;28;20053;-69
2022/05/01 02:37:27;;;;;;;4.95;2.75;;;;;;;7.34;100.00;102170.25;6246688;28;20056;-69
2022/05/01 02:40:29;;;;;;;3.80;2.53;;;;;;;7.32;100.00;102172.91;6246067;28;20471;-69
2022/05/01 02:43:30;;;;;;;4.00;2.20;;;;;;;7.31;100.00;102171.19;6246722;28;20049;-69
2022/05/01 02:46:32;;;;;;;4.05;2.25;;;;;;;7.33;100.00;102173.75;6246606;28;20076;-69
2022/05/01 02:49:35;;;;;;;7.13;2.15;;;;;;;7.35;100.00;102170.22;6246653;28;20049;-69
2022/05/01 02:52:38;;;;;;;6.40;2.65;;;;;;;7.32;100.00;102174.66;6245835;28;20056;-68
2022/05/01 02:55:39;;;;;;;4.00;2.58;;;;;;;7.36;100.00;102171.09;6246449;28;20111;-69
2022/05/01 02:58:41;;;;;;;5.57;2.47;;;;;;;7.46;100.00;102166.56;6246720;28;20045;-69
2022/05/01 03:01:43;;;;;;;6.20;2.47;;;;;;;7.38;100.00;102157.09;6245929;28;20056;-69
2022/05/01 03:04:45;;;;;;;7.45;2.78;;;;;;;7.31;100.00;102160.72;6246469;28;20092;-69
2022/05/01 03:07:48;;;;;;;4.05;2.38;;;;;;;7.26;100.00;102156.44;6246555;28;20481;-69
2022/05/01 03:10:50;;;;;;;5.70;2.30;;;;;;;7.20;100.00;102152.16;6247988;28;20049;-69
2022/05/01 03:13:51;;;;;;;5.25;2.60;;;;;;;7.27;100.00;102159.03;6251232;28;20073;-69
2022/05/01 03:16:52;;;;;;;3.72;2.30;;;;;;;7.24;100.00;102159.09;6251501;28;20076;-69
2022/05/01 03:23:14;;;;;;;6.10;2.65;;;;;;;7.22;100.00;102157.38;6250671;28;20057;-69
2022/05/01 03:26:16;;;;;;;5.78;2.63;;;;;;;7.31;100.00;102151.97;6250999;28;20060;-69
2022/05/01 03:29:18;;;;;;;5.22;2.45;;;;;;;7.32;100.00;102156.34;6251088;28;20049;-69
2022/05/01 03:32:20;;;;;;;3.50;2.05;;;;;;;7.32;100.00;102156.34;6250194;28;20496;-69
2022/05/01 03:35:21;;;;;;;3.10;1.73;;;;;;;7.35;100.00;102158.88;6251170;28;20061;-68
2022/05/01 03:38:24;;;;;;;5.63;2.75;;;;;;;7.34;100.00;102160.66;6250626;28;20046;-69
2022/05/01 03:41:26;;;;;;;4.22;2.30;;;;;;;7.32;100.00;102158.97;6250281;28;20049;-69
2022/05/01 03:44:28;;;;;;;5.60;2.33;;;;;;;7.33;100.00;102158.06;6250612;28;20143;-69
2022/05/01 03:47:29;;;;;;;3.42;2.50;;;;;;;7.37;100.00;102163.22;6250807;28;20432;-69
2022/05/01 03:50:30;;;;;;;5.78;2.65;;;;;;;7.35;100.00;102169.34;6249912;28;20049;-69
2022/05/01 03:53:33;;;;;;;5.22;2.45;;;;;;;7.29;100.00;102162.47;6250726;28;20057;-68
2022/05/01 03:56:35;;;;;;;4.53;2.40;;;;;;;7.30;100.00;102163.34;6250470;28;20187;-69
2022/05/01 03:59:36;;;;;;;5.88;3.05;;;;;;;7.21;100.00;102163.50;6250357;28;20076;-69
2022/05/01 04:02:42;;;;;;;4.30;2.50;;;;;;;7.15;100.00;102168.84;6249737;28;20050;-69
2022/05/01 04:05:44;;;;;;;6.55;2.33;;;;;;;7.09;100.00;102167.19;6250048;28;20409;-69
2022/05/01 04:08:48;;;;;;;5.25;2.85;;;;;;;7.10;100.00;102169.75;6250609;28;20052;-69
2022/05/01 04:11:49;;;;;;;6.63;2.30;;;;;;;7.16;100.00;102174.03;6249162;28;20106;-69
2022/05/01 04:14:51;;;;;;;4.13;2.35;;;;;;;7.16;100.00;102175.78;6250449;28;20512;-69
2022/05/01 04:17:52;;;;;;;6.05;2.42;;;;;;;7.16;100.00;102166.19;6249805;28;20152;-69
2022/05/01 04:20:53;;;;;;;3.50;2.42;;;;;;;7.19;100.00;102160.06;6268298;28;20083;-69
2022/05/01 04:23:56;;;;;;;4.55;2.20;;;;;;;7.19;100.00;102157.44;6273310;28;20049;-69
2022/05/01 04:26:57;;;;;;;5.75;2.45;;;;;;;7.25;100.00;102160.81;6264830;28;20053;-69
2022/05/01 04:29:59;;;;;;;7.10;2.70;;;;;;;7.23;100.00;102157.38;6268690;28;20049;-69
2022/05/01 04:33:04;;;;;;;4.18;2.58;;;;;;;7.16;100.00;102157.47;6249060;28;20053;-69
2022/05/01 04:36:06;;;;;;;5.47;2.50;;;;;;;7.15;100.00;102161.00;6249604;28;20053;-69
2022/05/01 04:39:09;;;;;;;5.18;2.75;;;;;;;7.18;100.00;102159.19;6249375;28;20416;-69
2022/05/01 04:42:11;;;;;;;3.78;2.10;;;;;;;7.17;100.00;102167.91;6248483;28;20054;-69
2022/05/01 04:45:12;;;;;;;8.07;2.25;;;;;;;7.24;100.00;102158.22;6249210;28;20053;-69
2022/05/01 04:48:15;;;;;;;7.43;2.17;;;;;;;7.27;100.00;102158.19;6249626;28;20050;-68
2022/05/01 04:51:16;;;;;;;7.82;2.53;;;;;;;7.29;100.00;102161.63;6248332;28;20054;-69
2022/05/01 04:54:19;;;;;;;5.32;2.60;;;;;;;7.33;100.00;102171.13;6249250;28;20136;-69
2022/05/01 04:57:20;;;;;;;4.63;2.72;;;;;;;7.38;100.00;102171.91;6248969;28;20053;-69
2022/05/01 05:00:22;;;;;;;4.90;2.30;;;;;;;7.31;100.00;102179.03;6248551;28;20049;-69
2022/05/01 05:03:23;;;;;;;4.93;1.88;;;;;;;7.34;100.00;102176.34;6248772;28;20073;-69
2022/05/01 05:06:24;;;;;;;3.20;2.17;;;;;;;7.38;100.00;102179.78;6248998;28;20054;-69
2022/05/01 05:12:48;;;;;;;5.88;2.50;;;;;;;7.40;100.00;102170.13;6248217;28;20521;-69
2022/05/01 05:15:50;;;;;;;5.00;2.55;;;;;;;7.42;100.00;102178.81;6248707;28;20061;-69
2022/05/01 05:18:51;;;;;;;3.97;2.28;;;;;;;7.45;100.00;102170.06;6248491;28;20053;-69
2022/05/01 05:21:53;;;;;;;4.32;2.53;;;;;;;7.49;100.00;102171.72;6247877;28;20061;-69
2022/05/01 05:24:55;;;;;;;6.45;2.97;;;;;;;7.57;100.00;102180.31;6248184;28;20049;-69
2022/05/01 05:27:57;;;;;;;3.60;2.28;;;;;;;7.61;100.00;102185.44;6248370;28;20053;-69
2022/05/01 05:30:58;;;;;;;6.95;2.50;;;;;;;7.68;100.00;102178.38;6247470;28;20056;-69
2022/05/01 05:33:59;;;;;;;5.53;2.45;;;;;;;7.75;100.00;102177.34;6248254;28;20053;-69
2022/05/01 05:37:01;;;;;;;6.95;2.95;;;;;;;7.71;100.00;102175.69;6248057;28;20049;-69
2022/05/01 05:40:04;;;;;;;7.55;2.72;;;;;;;7.66;100.00;102179.28;6247883;28;20064;-69
2022/05/01 05:43:06;;;;;;;9.07;2.42;;;;;;;7.75;100.00;102182.59;6247847;28;20131;-69
2022/05/01 05:46:07;;;;;;;4.55;2.72;;;;;;;7.79;100.00;102184.25;6248050;28;20057;-69
2022/05/01 05:49:09;;;;;;;4.05;2.00;;;;;;;7.82;100.00;102180.75;6247868;28;20053;-69
2022/05/01 05:52:10;;;;;;;4.15;2.35;;;;;;;7.78;100.00;102189.53;6246938;28;20054;-69
2022/05/01 05:55:13;;;;;;;4.93;2.60;;;;;;;7.76;100.00;102179.06;6247846;28;20053;-69
2022/05/01 05:58:14;;;;;;;4.35;2.40;;;;;;;7.82;100.00;102185.97;6247509;28;20041;-69
2022/05/01 06:01:16;;;;;;;5.97;2.53;;;;;;;7.93;100.00;102185.75;6246937;28;20077;-69
2022/05/01 06:04:17;;;;;;;4.38;2.72;;;;;;;8.10;100.00;102181.91;6247438;28;20497;-69
2022/05/01 06:07:18;;;;;;;4.72;2.92;;;;;;;8.22;100.00;102183.44;6247441;28;20060;-69
2022/05/01 06:10:21;;;;;;;4.28;2.63;;;;;;;8.29;100.00;102187.63;6246634;28;20056;-69
2022/05/01 06:13:22;;;;;;;4.75;2.47;;;;;;;8.36;100.00;102178.81;6247310;28;20053;-69
2022/05/01 06:16:24;;;;;;;6.00;3.13;;;;;;;8.42;100.00;102192.66;6247246;28;20045;-69
2022/05/01 06:19:25;;;;;;;4.95;2.58;;;;;;;8.46;100.00;102192.56;6254090;28;20048;-69
2022/05/01 06:22:26;;;;;;;4.88;3.35;;;;;;;8.50;100.00;102180.28;6270929;28;20056;-69
2022/05/01 06:25:29;;;;;;;5.05;2.63;;;;;;;8.53;100.00;102185.41;6271282;28;20080;-69
2022/05/01 06:28:30;;;;;;;4.88;2.67;;;;;;;8.54;100.00;102176.66;6270189;28;20048;-69
2022/05/01 06:31:32;;;;;;;4.35;2.38;;;;;;;8.54;100.00;102179.28;6246108;28;20548;-69
2022/05/01 06:34:35;;;;;;;5.25;2.88;;;;;;;8.64;100.00;102188.69;6246823;28;20060;-69
2022/05/01 06:37:37;;;;;;;5.25;2.40;;;;;;;8.73;100.00;102188.47;6246725;28;20132;-68
2022/05/01 06:40:42;;;;;;;7.40;3.47;;;;;;;8.82;100.00;102192.66;6245903;28;20067;-69
2022/05/01 06:43:43;;;;;;;18.95;5.72;;;;;;;8.98;100.00;102196.63;6266451;28;20049;-69
2022/05/01 06:46:45;;;;;;;6.13;2.63;;;;;;;9.02;100.00;102195.66;6246357;28;20049;-69
2022/05/01 06:49:46;;;;;;;4.57;2.63;;;;;;;9.17;100.00;102190.94;6246235;28;20649;-69
2022/05/01 06:52:47;;;;;;;4.20;2.03;;;;;;;9.25;100.00;102194.25;6246175;28;20049;-69
2022/05/01 06:55:50;;;;;;;5.05;2.40;;;;;;;9.27;100.00;102195.94;6246527;28;20057;-69
2022/05/01 06:58:52;;;;;;;5.25;2.45;;;;;;;9.36;100.00;102195.72;6246501;28;20049;-69
2022/05/01 07:01:53;;;;;;;3.17;2.05;;;;;;;9.37;100.00;102194.81;6245615;28;20402;-69
2022/05/01 07:04:54;;;;;;;3.00;1.85;;;;;;;9.32;100.00;102194.06;6246393;28;20049;-69
2022/05/01 07:07:56;;;;;;;6.20;2.72;;;;;;;9.22;100.00;102194.31;6246355;28;20057;-69
2022/05/01 07:10:58;;;;;;;4.32;2.03;;;;;;;9.25;100.00;102192.47;6245616;28;20064;-68
2022/05/01 07:14:00;;;;;;;7.55;2.85;;;;;;;9.22;100.00;102189.97;6246424;28;20489;-69
2022/05/01 07:17:01;;;;;;;4.03;2.30;;;;;;;9.18;100.00;102182.19;6246092;28;20592;-69
2022/05/01 07:20:03;;;;;;;3.75;2.15;;;;;;;9.11;100.00;102187.56;6246181;28;20041;-69
2022/05/01 07:23:06;;;;;;;4.95;1.75;;;;;;;9.07;100.00;102188.53;6245715;28;20049;-69
2022/05/01 07:26:08;;;;;;;5.43;2.28;;;;;;;9.02;100.00;102189.56;6246425;28;20088;-69
2022/05/01 07:29:10;;;;;;;5.53;2.55;;;;;;;9.02;100.00;102195.66;6245973;28;20053;-69
2022/05/01 07:32:11;;;;;;;3.83;1.77;;;;;;;9.05;100.00;102198.22;6245559;28;20649;-69
2022/05/01 07:35:13;;;;;;;5.03;2.22;;;;;;;9.09;100.00;102191.16;6246255;28;20511;-69
2022/05/01 07:38:14;;;;;;;2.53;1.40;;;;;;;9.18;100.00;102196.19;6245790;28;20056;-69
2022/05/01 07:41:17;;;;;;;5.45;2.85;;;;;;;9.24;100.00;102201.25;6245349;28;20620;-69
2022/05/01 07:44:19;;;;;;;3.50;2.20;;;;;;;9.29;100.00;102199.38;6245795;28;20046;-69
2022/05/01 07:47:20;;;;;;;5.22;1.90;;;;;;;9.25;100.00;102199.50;6256747;28;20059;-69
2022/05/01 07:50:21;;;;;;;4.03;2.42;;;;;;;9.25;100.00;102200.34;6262358;28;20439;-69
2022/05/01 07:53:23;;;;;;;3.85;2.10;;;;;;;9.33;100.00;102197.56;6263623;28;20468;-69
2022/05/01 07:56:26;;;;;;;4.72;2.20;;;;;;;9.32;100.00;102193.22;6253456;28;20053;-69
2022/05/01 07:59:27;;;;;;;6.78;2.25;;;;;;;9.40;100.00;102191.22;6262801;28;20056;-70
2022/05/01 08:02:34;;;;;;;2.95;1.90;;;;;;;9.43;100.00;102191.16;6267928;28;20045;-69
2022/05/01 08:05:35;;;;;;;3.85;1.90;;;;;;;9.48;100.00;102196.28;6274871;28;20179;-70
2022/05/01 08:08:36;;;;;;;2.55;1.77;;;;;;;9.47;100.00;102199.81;6273552;28;20052;-69
2022/05/01 08:11:38;;;;;;;2.15;1.55;;;;;;;9.48;97.81;102197.16;6273907;28;20052;-68
2022/05/01 08:14:41;;;;;;;2.50;1.13;;;;;;;9.52;99.82;102196.19;6274925;28;20508;-69
2022/05/01 08:17:43;;;;;;;3.42;1.02;;;;;;;9.55;99.54;102197.88;6274669;28;20147;-70
2022/05/01 08:24:04;;;;;;;0.85;0.52;;;;;;;9.84;95.60;102187.44;6274034;28;20056;-69
2022/05/01 08:27:07;;;;;;;1.35;1.05;;;;;;;9.90;94.97;102184.69;6265472;28;20052;-69
2022/05/01 08:30:08;;;;;;;2.05;0.98;;;;;;;9.95;95.98;102192.44;6254759;28;20041;-70
2022/05/01 08:33:10;;;;;;;1.98;1.13;;;;;;;10.02;92.57;102198.38;6249207;28;20053;-69
2022/05/01 08:36:11;;;;;;;2.20;1.00;;;;;;;10.05;90.90;102191.25;6249411;28;20050;-70
2022/05/01 08:39:12;;;;;;;1.55;1.00;;;;;;;10.09;90.87;102194.66;6249615;28;20050;-70
2022/05/01 08:42:15;;;;;;;2.17;1.38;;;;;;;10.20;96.00;102189.09;6248641;28;20057;-69
2022/05/01 08:45:22;;;;;;;2.80;1.70;;;;;;;10.21;96.67;102191.69;6249465;28;20052;-69
2022/05/01 08:48:30;;;;;;;7.80;2.05;;;;;;;10.26;96.42;102189.81;6249203;28;20045;-69
2022/05/01 08:51:34;;;;;;;5.33;1.50;;;;;;;10.24;93.63;102189.00;6267181;28;20060;-69
2022/05/01 08:54:36;;;;;;;2.35;1.23;;;;;;;10.29;94.87;102188.88;6263569;28;20054;-69
2022/05/01 08:57:40;;;;;;;2.00;1.48;;;;;;;10.45;95.47;102182.28;6253324;28;20060;-70
2022/05/01 09:00:41;;;;;;;2.67;1.35;;;;;;;10.51;96.31;102187.34;6272861;28;20041;-69
2022/05/01 09:03:44;;;;;;;3.58;2.38;;;;;;;10.64;91.96;102193.94;6273179;28;20520;-69
2022/05/01 09:06:46;;;;;;;2.63;1.85;;;;;;;10.68;92.60;102185.97;6271728;28;20048;-69
2022/05/01 09:09:50;;;;;;;3.38;2.05;;;;;;;10.72;90.00;102185.84;6269978;28;20037;-69
2022/05/01 09:12:53;;;;;;;7.40;1.92;;;;;;;10.80;91.31;102188.22;6260499;28;20061;-69
2022/05/01 09:16:10;;;;;;;6.50;1.40;;;;;;;10.84;86.82;102188.06;6265308;28;20056;-71
2022/05/01 09:19:30;;;;;;;5.25;1.80;;;;;;;10.83;90.47;102182.88;6272794;28;20041;-69
2022/05/01 09:22:48;;;;;;;4.35;1.42;;;;;;;11.00;87.88;102191.09;6266921;28;20496;-70
2022/05/01 09:25:58;;;;;;;1.52;1.23;;;;;;;11.18;84.59;102185.22;6265579;28;20049;-69
2022/05/01 09:29:01;;;;;;;2.10;1.20;;;;;;;11.53;84.51;102180.53;6259443;28;20049;-70
2022/05/01 09:32:05;;;;;;;2.97;1.48;;;;;;;11.66;82.77;102163.41;6263193;28;20045;-69
2022/05/01 09:35:11;;;;;;;1.65;1.15;;;;;;;11.79;85.24;102169.09;6272840;28;20557;-70
2022/05/01 09:38:18;;;;;;;2.65;1.35;;;;;;;11.81;76.11;102176.94;6271849;28;20427;-69
2022/05/01 09:41:19;;;;;;;2.20;1.08;;;;;;;11.72;76.06;102170.25;6269420;28;20045;-70
2022/05/01 09:44:23;;;;;;;1.60;1.00;;;;;;;11.72;74.64;102169.34;6272256;28;20056;-69
2022/05/01 09:47:35;;;;;;;1.60;1.05;;;;;;;11.81;73.98;102169.03;6247628;28;20053;-69
2022/05/01 09:50:42;;;;;;;1.33;1.00;;;;;;;12.05;74.01;102164.72;6247206;28;20426;-73
2022/05/01 09:53:44;;;;;;;1.35;0.90;;;;;;;12.22;73.67;102164.94;6247144;28;20052;-70
2022/05/01 09:56:47;;;;;;;1.65;0.93;;;;;;;12.26;72.92;102155.13;6246647;28;20049;-70
2022/05/01 09:59:50;;;;;;;1.45;0.95;;;;;;;12.27;69.88;102151.59;6250959;28;20420;-70
2022/05/01 10:02:51;;;;;;;1.30;0.93;;;;;;;12.16;68.07;102160.75;6266502;28;20045;-70
2022/05/01 10:05:55;;;;;;;1.73;1.05;;;;;;;12.21;71.55;102147.38;6271116;28;20056;-70
2022/05/01 10:08:56;;;;;;;4.82;1.13;;;;;;;12.18;69.18;102144.88;6271587;28;20049;-70
2022/05/01 10:12:04;;;;;;;1.20;1.02;;;;;;;12.16;69.28;102146.72;6271152;28;20460;-70
2022/05/01 10:15:08;;;;;;;2.55;1.52;;;;;;;12.21;70.46;102143.91;6272313;28;20057;-70
2022/05/01 10:18:11;;;;;;;1.65;1.35;;;;;;;12.19;70.84;102142.19;6271753;28;20049;-70
2022/05/01 10:21:13;;;;;;;1.85;1.15;;;;;;;12.27;71.10;102141.06;6270124;28;20044;-69
2022/05/01 10:24:15;;;;;;;1.35;1.05;;;;;;;12.37;67.08;102138.00;6264002;28;20053;-70
2022/05/01 10:27:28;;;;;;;4.40;1.27;;;;;;;12.57;64.48;102136.34;6268997;28;20053;-70
2022/05/01 10:34:23;;;;;;;1.23;0.77;;;;;;;12.77;56.10;102136.44;6235474;28;20492;-70
2022/05/01 10:37:50;;;;;;;1.67;0.85;;;;;;;12.94;55.52;102138.38;6270530;28;20060;-69
2022/05/01 10:40:53;;;;;;;1.23;1.10;;;;;;;12.80;52.41;102135.44;6246482;28;20504;-69
2022/05/01 10:43:57;;;;;;;2.50;0.90;;;;;;;12.91;53.30;102131.44;6246637;28;20053;-70
2022/05/01 10:47:12;;;;;;;1.10;0.77;;;;;;;12.89;51.54;102129.78;6246855;28;20049;-70
2022/05/01 10:50:21;;;;;;;1.45;1.10;;;;;;;12.88;52.02;102136.84;6246592;28;20050;-69
2022/05/01 10:53:22;;;;;;;1.60;1.35;;;;;;;12.83;52.21;102128.25;6256147;28;20049;-70
2022/05/01 10:56:26;;;;;;;2.05;1.25;;;;;;;12.74;51.39;102119.88;6270554;28;20072;-69
2022/05/01 10:59:34;;;;;;;2.90;1.02;;;;;;;12.78;51.90;102124.09;6266530;28;20431;-70
2022/05/01 11:02:42;;;;;;;1.30;1.20;;;;;;;12.95;53.61;102122.50;6269672;28;20075;-70
2022/05/01 11:05:44;;;;;;;3.80;1.20;;;;;;;13.10;52.67;102121.00;6270830;28;20493;-70
2022/05/01 11:08:47;;;;;;;1.88;1.48;;;;;;;13.23;52.63;102123.16;6268710;28;20059;-70
2022/05/01 11:11:53;;;;;;;3.15;1.38;;;;;;;13.29;50.09;102115.81;6268734;28;20500;-70
2022/05/01 11:14:56;;;;;;;3.67;1.02;;;;;;;13.28;49.95;102115.91;6271071;28;20052;-69
2022/05/01 11:17:59;;;;;;;2.70;1.30;;;;;;;13.21;49.96;102113.47;6270168;28;20056;-69
2022/05/01 11:21:32;;;;;;;3.72;1.40;;;;;;;13.48;51.70;102109.75;6270425;28;20056;-69
2022/05/01 11:24:44;;;;;;;1.75;1.10;;;;;;;13.55;49.62;102111.19;6271133;28;20080;-70
2022/05/01 11:27:49;;;;;;;1.15;0.68;;;;;;;13.30;47.95;102112.25;6268193;28;20045;-70
2022/05/01 11:30:51;;;;;;;5.47;2.75;;;;;;;13.31;48.80;102113.13;6267872;28;20051;-69
2022/05/01 11:34:25;;;;;;;1.27;0.90;;;;;;;13.34;48.72;102110.34;6264428;28;20053;-69
2022/05/01 11:37:28;;;;;;;1.27;0.98;;;;;;;13.32;48.12;102113.06;6267730;28;20056;-69
2022/05/01 11:40:30;;;;;;;1.35;1.08;;;;;;;13.42;50.11;102106.44;6257305;28;20056;-69
2022/05/01 11:43:33;;;;;;;2.00;1.00;;;;;;;13.46;48.29;102107.19;6252577;28;20050;-69
2022/05/01 11:46:37;;;;;;;1.05;0.80;;;;;;;13.45;48.31;102106.31;6275432;28;20053;-70
2022/05/01 11:49:39;;;;;;;2.10;0.90;;;;;;;13.33;47.35;102104.19;6275154;28;20057;-69
2022/05/01 11:52:44;;;;;;;1.58;1.35;;;;;;;13.30;48.84;102099.03;6274979;28;20049;-69
2022/05/01 12:02:25;;;;;;;2.53;1.00;;;;;;;13.94;47.99;102090.03;6274196;28;20060;-69
2022/05/01 12:05:27;;;;;;;1.23;0.90;;;;;;;14.14;46.44;102087.34;6275235;28;20049;-69
2022/05/01 12:08:30;;;;;;;1.48;0.90;;;;;;;14.30;47.11;102089.25;6274869;28;20060;-70
2022/05/01 12:11:32;;;;;;;1.67;1.17;;;;;;;14.25;47.83;102086.84;6274032;28;20507;-70
2022/05/01 12:14:34;;;;;;;1.75;0.98;;;;;;;14.34;45.85;102088.19;6256431;28;20489;-70
2022/05/01 12:17:40;;;;;;;1.70;0.90;;;;;;;14.57;45.42;102087.09;6249766;28;20315;-70
2022/05/01 12:20:42;;;;;;;1.13;1.02;;;;;;;14.91;44.56;102071.28;6249400;28;20508;-70
2022/05/01 12:23:48;;;;;;;1.83;0.82;;;;;;;15.36;45.05;102063.72;6249655;28;20049;-69
2022/05/01 12:26:52;;;;;;;3.58;0.98;;;;;;;15.12;42.58;102060.53;6249937;28;20064;-70
2022/05/01 12:29:55;;;;;;;2.70;1.10;;;;;;;14.58;44.56;102065.00;6255348;28;20048;-70
2022/05/01 12:32:57;;;;;;;2.35;1.00;;;;;;;14.63;44.35;102065.66;6264757;28;20120;-70
2022/05/01 12:35:59;;;;;;;1.77;1.27;;;;;;;14.54;44.38;102056.38;6270737;28;20056;-69
2022/05/01 12:39:03;;;;;;;1.63;1.30;;;;;;;14.26;46.19;102056.84;6271522;28;20049;-70
2022/05/01 12:45:35;;;;;;;1.00;0.80;;;;;;;14.61;46.26;102052.50;6266653;28;20049;-70
2022/05/01 12:48:40;;;;;;;3.33;0.95;;;;;;;14.93;46.16;102050.03;6264291;28;20049;-70
2022/05/01 12:51:45;;;;;;;1.75;0.82;;;;;;;15.27;46.57;102045.66;6264248;28;20037;-71
2022/05/01 12:55:06;;;;;;;1.98;1.17;;;;;;;15.49;44.56;102051.53;6270721;28;20053;-70
2022/05/01 12:58:11;;;;;;;3.53;1.25;;;;;;;15.30;43.11;102056.94;6262761;28;20053;-70
2022/05/01 13:01:23;;;;;;;1.92;1.25;;;;;;;15.04;44.43;102053.00;6269457;28;20497;-70
2022/05/01 13:04:26;;;;;;;3.80;0.93;;;;;;;15.87;43.28;102044.19;6273799;28;20127;-70
2022/05/01 13:07:30;;;;;;;1.10;0.80;;;;;;;17.02;39.84;102040.28;6273405;28;20045;-68
2022/05/01 13:10:33;;;;;;;2.30;0.95;;;;;;;17.10;38.71;102035.38;6266971;28;20508;-68
2022/05/01 13:13:42;;;;;;;1.73;0.90;;;;;;;18.49;38.70;102029.25;6271023;28;20049;-68
2022/05/01 13:16:47;;;;;;;1.45;0.70;;;;;;;20.05;34.27;102027.41;6260185;28;20049;-68
2022/05/01 13:19:48;;;;;;;1.70;1.00;;;;;;;21.28;32.72;102030.53;6272525;28;20049;-70
2022/05/01 13:22:49;;;;;;;1.23;1.05;;;;;;;21.17;32.44;102022.53;6260543;28;20053;-69
2022/05/01 13:25:52;;;;;;;1.38;0.90;;;;;;;21.90;31.46;102027.41;6248444;28;20052;-68
2022/05/01 13:28:53;;;;;;;1.75;1.05;;;;;;;21.22;33.79;102012.31;6248111;28;20072;-68
2022/05/01 13:31:55;;;;;;;1.80;0.90;;;;;;;21.35;32.15;102015.78;6247543;28;20045;-69
2022/05/01 13:34:56;;;;;;;1.48;1.15;;;;;;;19.99;33.38;102015.34;6248426;28;20136;-68
2022/05/01 13:37:57;;;;;;;8.05;1.40;;;;;;;18.15;38.46;102013.78;6248113;28;20056;-70
2022/05/01 13:47:40;;;;;;;2.83;1.35;;;;;;;16.80;41.28;102003.53;6252590;28;20061;-68
2022/05/01 13:50:42;;;;;;;2.35;1.17;;;;;;;16.16;41.79;102000.13;6271141;28;20037;-69
2022/05/01 13:53:44;;;;;;;1.73;1.15;;;;;;;15.57;44.29;101998.97;6272233;28;20052;-68
2022/05/01 13:56:46;;;;;;;1.80;1.10;;;;;;;15.21;43.80;101997.38;6271308;28;20095;-69
2022/05/01 13:59:48;;;;;;;3.50;1.13;;;;;;;15.03;45.18;101998.31;6268582;28;20045;-70
2022/05/01 14:02:50;;;;;;;2.72;1.27;;;;;;;14.91;45.50;101998.97;6259449;28;20053;-71
2022/05/01 14:05:51;;;;;;;2.10;1.40;;;;;;;14.63;49.00;102003.03;6264391;28;20056;-71
2022/05/01 14:08:52;;;;;;;1.83;1.23;;;;;;;14.66;47.44;101994.06;6267382;28;20056;-71
2022/05/01 14:11:57;;;;;;;2.83;1.25;;;;;;;14.87;47.47;101989.47;6269969;28;20045;-71
2022/05/01 14:14:58;;;;;;;1.83;1.40;;;;;;;15.24;46.19;101988.41;6272180;28;20493;-71
2022/05/01 14:18:00;;;;;;;3.33;1.00;;;;;;;15.52;45.69;101992.22;6271701;28;20049;-71
2022/05/01 14:21:03;;;;;;;2.58;1.40;;;;;;;15.16;45.11;101990.59;6270353;28;20041;-71
2022/05/01 14:24:05;;;;;;;1.60;1.23;;;;;;;15.14;45.32;101988.03;6267265;28;20053;-71
2022/05/01 14:27:09;;;;;;;8.43;1.48;;;;;;;15.64;45.99;101997.75;6258555;28;20060;-71
2022/05/01 14:30:11;;;;;;;3.13;1.30;;;;;;;15.39;45.69;101984.91;6270938;28;20094;-71
2022/05/01 14:33:18;;;;;;;2.00;1.50;;;;;;;14.55;46.36;101986.66;6271190;28;20056;-70
2022/05/01 14:36:26;;;;;;;2.90;1.50;;;;;;;14.82;48.92;101987.06;6270881;28;20052;-71
2022/05/01 14:39:29;;;;;;;3.28;1.50;;;;;;;14.74;46.70;101983.94;6269003;28;20060;-70
2022/05/01 14:42:33;;;;;;;2.05;1.30;;;;;;;14.51;48.05;101979.81;6268864;28;20504;-71
2022/05/01 14:45:36;;;;;;;4.40;2.55;;;;;;;14.44;47.98;101978.38;6268715;28;20063;-71
2022/05/01 14:48:41;;;;;;;2.85;1.92;;;;;;;14.19;49.00;101984.03;6260755;28;20049;-71
2022/05/01 14:51:46;;;;;;;3.25;1.98;;;;;;;14.23;49.40;101974.16;6246030;28;20050;-71